TJPS/PSE METAR and TAF weather

Enter ICAO airport designator
Station Type Date Time Source
TJPS METAR 2022/11/26 09:15 UTC NOAA

TJPS 260915Z AUTO 00000KT 10SM SCT065 SCT075 22/20 A2996 RMK AO2 TSNO


Station Type Date Time Source
TJPS Decoded METAR 2022/11/26 09:15 UTC NOAA

Ponce, Mercedita Airport, PR, United States (TJPS) 18-01N 066-34W
Nov 26, 2022 - 04:15 AM EST / 2022.11.26 0915 UTC
Wind: Calm:0
Visibility: 10 mile(s):0
Sky conditions: partly cloudy
Temperature: 71 F (22 C)
Dew Point: 68 F (20 C)
Relative Humidity: 88%
Pressure (altimeter): 29.96 in. Hg (1014 hPa)
ob: TJPS 260915Z AUTO 00000KT 10SM SCT065 SCT075 22/20 A2996 RMK AO2 TSNO
cycle: 9

Station Type Date Time Source
TJPS TAF 2022/11/26 06:42 UTC NOAA

TAF TJPS 260538Z 2606/2706 00000KT P6SM SKC
FM261400 14011KT P6SM FEW030 SCT060
FM261800 16015KT P6SM VCSH SCT030 SCT060
FM262200 06004KT P6SM FEW040

Example: see airport list